createdAt,value
2017-12-05T00:01:46.030Z,19.37
2017-12-05T00:04:14.274Z,19.87
2017-12-05T00:06:42.522Z,22.40
2017-12-05T00:09:11.159Z,17.63
2017-12-05T00:11:39.409Z,17.90
2017-12-05T00:14:07.650Z,14.47
2017-12-05T00:16:36.057Z,21.27
2017-12-05T00:19:05.077Z,26.90
2017-12-05T00:21:33.325Z,25.87
2017-12-05T00:24:02.363Z,16.67
2017-12-05T00:26:30.614Z,21.30
2017-12-05T00:28:58.846Z,21.27
2017-12-05T00:31:27.150Z,19.30
2017-12-05T00:33:56.156Z,17.17
2017-12-05T00:36:24.446Z,21.70
2017-12-05T00:38:52.950Z,19.43
2017-12-05T00:41:21.210Z,20.60
2017-12-05T00:43:49.454Z,20.67
2017-12-05T00:46:17.730Z,18.80
2017-12-05T00:48:46.738Z,18.23
2017-12-05T00:51:15.758Z,20.33
2017-12-05T00:53:44.069Z,22.43
2017-12-05T00:56:12.274Z,17.77
2017-12-05T00:58:41.286Z,18.47
2017-12-05T01:01:09.915Z,21.10
2017-12-05T01:03:38.157Z,21.67
2017-12-05T01:06:06.406Z,17.30
2017-12-05T01:08:34.689Z,19.87
2017-12-05T01:11:03.885Z,22.27
2017-12-05T01:13:32.130Z,18.60
2017-12-05T01:16:00.438Z,20.40
2017-12-05T01:18:29.453Z,23.37
2017-12-05T01:20:57.701Z,21.20
2017-12-05T01:23:26.021Z,21.10
2017-12-05T01:25:54.266Z,26.60
2017-12-05T01:28:23.326Z,20.70
2017-12-05T01:30:51.574Z,20.63
2017-12-05T01:33:19.819Z,23.93
2017-12-05T01:35:48.826Z,23.93
2017-12-05T01:38:17.109Z,32.13
2017-12-05T01:40:45.360Z,19.03
2017-12-05T01:43:13.602Z,20.53
2017-12-05T01:45:42.258Z,22.07
2017-12-05T01:48:10.501Z,22.97
2017-12-05T01:50:38.746Z,33.07
2017-12-05T01:53:07.019Z,19.33
2017-12-05T01:55:35.267Z,21.60
2017-12-05T01:58:03.515Z,26.90
2017-12-05T02:00:32.538Z,21.90
2017-12-05T02:03:00.802Z,25.63
2017-12-05T02:05:29.049Z,19.90
2017-12-05T02:07:58.186Z,22.70
2017-12-05T02:10:26.430Z,25.83
2017-12-05T02:12:55.005Z,24.23
2017-12-05T02:15:24.047Z,26.30
2017-12-05T02:17:52.309Z,16.43
2017-12-05T02:20:20.546Z,23.23
2017-12-05T02:22:48.809Z,21.67
2017-12-05T02:25:17.059Z,22.83
2017-12-05T02:27:46.065Z,31.53
2017-12-05T02:30:14.626Z,22.50
2017-12-05T02:32:42.936Z,20.60
2017-12-05T02:35:11.177Z,20.93
2017-12-05T02:37:39.446Z,20.90
2017-12-05T02:40:07.695Z,20.03
2017-12-05T02:42:35.938Z,21.27
2017-12-05T02:45:04.214Z,21.70
2017-12-05T02:47:32.464Z,18.60
2017-12-05T02:50:00.710Z,21.40
2017-12-05T02:52:29.429Z,17.53
2017-12-05T02:54:57.687Z,15.27
2017-12-05T02:57:25.929Z,24.23
2017-12-05T02:59:54.961Z,21.47
2017-12-05T03:02:23.217Z,24.87
2017-12-05T03:04:52.225Z,20.47
2017-12-05T03:07:20.499Z,17.93
2017-12-05T03:09:48.745Z,21.23
2017-12-05T03:12:16.989Z,20.33
2017-12-05T03:14:45.872Z,22.60
2017-12-05T03:17:14.114Z,19.90
2017-12-05T03:19:42.362Z,17.87
2017-12-05T03:22:10.638Z,20.80
2017-12-05T03:24:38.882Z,20.40
2017-12-05T03:27:07.128Z,18.73
2017-12-05T03:29:35.403Z,23.40
2017-12-05T03:32:03.654Z,23.80
2017-12-05T03:34:31.910Z,21.90
2017-12-05T03:37:00.563Z,21.10
2017-12-05T03:39:28.812Z,18.13
2017-12-05T03:41:57.062Z,20.63
2017-12-05T03:44:25.342Z,27.30
2017-12-05T03:46:54.372Z,28.50
2017-12-05T03:49:22.617Z,23.17
2017-12-05T03:51:50.894Z,23.30
2017-12-05T03:54:19.910Z,19.33
2017-12-05T03:56:48.159Z,18.07
2017-12-05T03:59:17.300Z,21.20
2017-12-05T04:01:45.547Z,28.20
2017-12-05T04:04:13.800Z,28.03
2017-12-05T04:06:42.100Z,22.93
2017-12-05T04:09:10.325Z,28.00
2017-12-05T04:11:38.714Z,27.07
2017-12-05T04:14:06.981Z,23.43
2017-12-05T04:16:35.506Z,19.00
2017-12-05T04:19:04.526Z,26.70
2017-12-05T04:21:33.065Z,27.73
2017-12-05T04:24:01.314Z,28.77
2017-12-05T04:26:29.549Z,25.13
2017-12-05T04:28:57.813Z,23.73
2017-12-05T04:31:26.830Z,25.83
2017-12-05T04:33:55.082Z,23.87
2017-12-05T04:36:24.422Z,31.43
2017-12-05T04:38:52.662Z,32.50
2017-12-05T04:41:20.905Z,23.83
2017-12-05T04:43:49.346Z,20.93
2017-12-05T04:46:17.594Z,23.53
2017-12-05T04:48:46.602Z,26.33
2017-12-05T04:51:14.878Z,23.67
2017-12-05T04:53:43.123Z,26.00
2017-12-05T04:56:11.374Z,31.70
2017-12-05T04:58:39.638Z,26.30
2017-12-05T05:01:07.887Z,32.53
2017-12-05T05:03:36.134Z,24.50
2017-12-05T05:06:04.974Z,28.67
2017-12-05T05:08:33.222Z,22.47
2017-12-05T05:11:01.469Z,26.27
2017-12-05T05:13:29.737Z,26.43
2017-12-05T05:15:57.983Z,22.27
2017-12-05T05:18:26.832Z,25.00
2017-12-05T05:20:56.778Z,30.40
2017-12-05T05:23:25.022Z,29.53
2017-12-05T05:25:54.030Z,28.77
2017-12-05T05:28:22.477Z,24.50
2017-12-05T05:30:50.733Z,27.80
2017-12-05T05:33:18.974Z,23.60
2017-12-05T05:35:47.245Z,21.00
2017-12-05T05:38:15.562Z,35.77
2017-12-05T05:40:43.845Z,28.73
2017-12-05T05:43:12.102Z,32.63
2017-12-05T05:45:40.362Z,31.60
2017-12-05T05:48:08.601Z,34.00
2017-12-05T05:50:37.773Z,27.97
2017-12-05T05:53:06.026Z,29.20
2017-12-05T05:55:34.275Z,30.87
2017-12-05T05:58:02.547Z,34.10
2017-12-05T06:00:30.944Z,32.80
2017-12-05T06:02:59.173Z,31.50
2017-12-05T06:05:27.447Z,37.43
2017-12-05T06:07:55.696Z,35.17
2017-12-05T06:10:23.943Z,34.03
2017-12-05T06:12:52.754Z,29.80
2017-12-05T06:15:21.012Z,31.73
2017-12-05T06:17:49.270Z,32.30
2017-12-05T06:20:17.874Z,26.50
2017-12-05T06:22:46.150Z,31.53
2017-12-05T06:25:14.565Z,29.50
2017-12-05T06:27:42.899Z,26.63
2017-12-05T06:30:11.125Z,29.30
2017-12-05T06:32:39.378Z,34.10
2017-12-05T06:35:08.162Z,27.40
2017-12-05T06:37:36.409Z,29.30
2017-12-05T06:40:04.657Z,26.23
2017-12-05T06:42:32.933Z,29.57
2017-12-05T06:45:01.187Z,25.37
2017-12-05T06:47:29.463Z,25.40
2017-12-05T06:49:57.734Z,25.13
2017-12-05T06:52:25.993Z,26.07
2017-12-05T06:54:54.254Z,25.87
2017-12-05T06:57:22.769Z,27.77
2017-12-05T06:59:51.018Z,26.20
2017-12-05T07:02:19.266Z,25.40
2017-12-05T07:04:47.537Z,29.40
2017-12-05T07:07:15.789Z,27.47
2017-12-05T07:09:44.037Z,28.63
2017-12-05T07:12:12.306Z,27.47
2017-12-05T07:14:40.550Z,30.90
2017-12-05T07:17:08.798Z,25.53
2017-12-05T07:19:37.370Z,22.93
2017-12-05T07:22:05.790Z,22.77
2017-12-05T07:24:34.803Z,28.03
2017-12-05T07:27:03.838Z,23.93
2017-12-05T07:29:32.082Z,25.40
2017-12-05T07:32:00.545Z,22.77
2017-12-05T07:34:29.571Z,18.20
2017-12-05T07:36:57.813Z,23.07
2017-12-05T07:39:26.054Z,22.90
2017-12-05T07:41:54.709Z,17.53
2017-12-05T07:44:22.950Z,27.40
2017-12-05T07:46:51.202Z,24.00
2017-12-05T07:49:19.470Z,26.70
2017-12-05T07:51:47.718Z,21.87
2017-12-05T07:54:15.978Z,24.30
2017-12-05T07:56:44.256Z,25.33
2017-12-05T07:59:12.497Z,26.47
2017-12-05T08:01:41.513Z,26.37
2017-12-05T08:04:10.434Z,21.40
2017-12-05T08:06:38.690Z,25.43
2017-12-05T08:09:06.934Z,26.30
2017-12-05T08:11:35.982Z,28.10
2017-12-05T08:14:04.995Z,22.30
2017-12-05T08:16:33.237Z,25.63
2017-12-05T08:19:01.510Z,29.37
2017-12-05T08:21:29.762Z,28.37
2017-12-05T08:23:58.334Z,24.73
2017-12-05T08:26:27.687Z,23.37
2017-12-05T08:28:55.941Z,16.80
2017-12-05T08:31:24.185Z,19.90
2017-12-05T08:33:52.453Z,24.67
2017-12-05T08:36:20.692Z,17.37
2017-12-05T08:38:48.930Z,14.67
2017-12-05T08:41:18.578Z,12.57
2017-12-05T08:43:46.834Z,19.97
2017-12-05T08:46:15.082Z,16.90
2017-12-05T08:48:45.357Z,19.40
2017-12-05T08:51:13.612Z,15.70
2017-12-05T08:53:41.859Z,14.70
2017-12-05T08:56:10.123Z,17.50
2017-12-05T08:58:38.371Z,14.13
2017-12-05T09:01:06.766Z,14.67
2017-12-05T09:03:35.034Z,12.37
2017-12-05T09:06:03.274Z,15.70
2017-12-05T09:08:31.513Z,16.07
2017-12-05T09:11:00.054Z,17.67
2017-12-05T09:13:28.330Z,26.87
2017-12-05T09:15:56.557Z,29.27
2017-12-05T09:18:25.601Z,29.20
2017-12-05T09:20:53.855Z,29.67
2017-12-05T09:23:22.086Z,28.57
2017-12-05T09:25:50.614Z,19.30
2017-12-05T09:28:18.860Z,15.90
2017-12-05T09:30:47.206Z,9.07
2017-12-05T09:33:15.783Z,16.20
2017-12-05T09:35:44.064Z,14.80
2017-12-05T09:38:12.306Z,17.07
2017-12-05T09:40:40.594Z,11.40
2017-12-05T09:43:08.833Z,9.77
2017-12-05T09:45:37.070Z,14.17
2017-12-05T09:48:05.333Z,13.07
2017-12-05T09:50:33.582Z,12.97
2017-12-05T09:53:01.822Z,13.33
2017-12-05T09:55:30.142Z,16.17
2017-12-05T09:57:58.394Z,14.23
2017-12-05T10:00:26.646Z,15.40
2017-12-05T10:02:54.915Z,11.00
2017-12-05T10:05:23.153Z,15.07
2017-12-05T10:07:51.406Z,13.97
2017-12-05T10:10:19.669Z,14.43
2017-12-05T10:12:47.930Z,15.70
2017-12-05T10:15:16.185Z,17.23
2017-12-05T10:17:44.502Z,14.70
2017-12-05T10:20:13.516Z,13.00
2017-12-05T10:22:41.754Z,12.23
2017-12-05T10:25:10.026Z,13.00
2017-12-05T10:27:38.569Z,11.43
2017-12-05T10:30:06.806Z,12.97
2017-12-05T10:32:35.134Z,11.30
2017-12-05T10:35:03.382Z,11.73
2017-12-05T10:37:31.671Z,7.53
2017-12-05T10:40:00.166Z,9.43
2017-12-05T10:42:28.402Z,13.33
2017-12-05T10:44:56.646Z,11.03
2017-12-05T10:47:24.908Z,9.70
2017-12-05T10:49:53.154Z,10.70
2017-12-05T10:52:21.389Z,9.37
2017-12-05T10:54:49.654Z,11.20
2017-12-05T10:57:17.889Z,12.03
2017-12-05T10:59:46.125Z,10.70
2017-12-05T11:02:14.446Z,10.33
2017-12-05T11:04:42.681Z,10.57
2017-12-05T11:07:11.686Z,8.80
2017-12-05T11:09:40.714Z,13.27
2017-12-05T11:12:08.953Z,10.27
2017-12-05T11:14:37.961Z,10.53
2017-12-05T11:17:06.234Z,11.70
2017-12-05T11:19:34.474Z,12.60
2017-12-05T11:22:02.739Z,14.47
2017-12-05T11:24:31.370Z,13.43
2017-12-05T11:26:59.613Z,11.90
2017-12-05T11:29:27.978Z,11.90
2017-12-05T11:31:56.238Z,8.17
2017-12-05T11:34:24.633Z,9.83
2017-12-05T11:36:52.854Z,10.70
2017-12-05T11:39:21.891Z,13.37
2017-12-05T11:41:50.137Z,11.07
2017-12-05T11:44:18.370Z,9.90
2017-12-05T11:46:46.769Z,12.87
2017-12-05T11:49:15.778Z,7.93
2017-12-05T11:51:44.778Z,9.23
2017-12-05T11:54:13.038Z,12.20
2017-12-05T11:56:42.054Z,14.27
2017-12-05T11:59:10.290Z,11.67
2017-12-05T12:01:38.554Z,11.03
2017-12-05T12:04:06.799Z,12.67
2017-12-05T12:06:35.062Z,10.47
2017-12-05T12:09:03.666Z,12.00
2017-12-05T12:11:31.948Z,13.03
2017-12-05T12:14:00.202Z,13.03
2017-12-05T12:16:28.469Z,10.10
2017-12-05T12:18:56.705Z,10.77
2017-12-05T12:21:24.950Z,15.40
2017-12-05T12:23:53.226Z,11.20
2017-12-05T12:26:21.478Z,11.30
2017-12-05T12:28:49.729Z,15.30
2017-12-05T12:31:19.358Z,11.23
2017-12-05T12:33:48.614Z,14.77
2017-12-05T12:36:16.879Z,10.90
2017-12-05T12:38:45.139Z,10.97
2017-12-05T12:41:13.378Z,12.57
2017-12-05T12:43:41.621Z,13.10
2017-12-05T12:46:09.895Z,12.93
2017-12-05T12:48:38.131Z,12.80
2017-12-05T12:51:06.374Z,11.80
2017-12-05T12:53:35.717Z,11.20
2017-12-05T12:56:04.874Z,13.23
2017-12-05T12:58:33.126Z,7.00
2017-12-05T13:01:01.385Z,8.60
2017-12-05T13:03:29.774Z,12.63
2017-12-05T13:05:58.155Z,16.77
2017-12-05T13:08:26.675Z,7.27
2017-12-05T13:10:54.946Z,8.27
2017-12-05T13:13:23.962Z,10.13
2017-12-05T13:15:52.376Z,9.13
2017-12-05T13:18:20.622Z,8.50
2017-12-05T13:20:48.881Z,9.03
2017-12-05T13:23:18.876Z,8.33
2017-12-05T13:25:51.034Z,7.43
2017-12-05T13:28:19.297Z,9.30
2017-12-05T13:30:47.545Z,9.90
2017-12-05T13:33:15.798Z,7.10
2017-12-05T13:35:44.151Z,5.40
2017-12-05T13:38:12.418Z,13.10
2017-12-05T13:40:41.812Z,10.50
2017-12-05T13:43:11.254Z,14.30
2017-12-05T13:45:40.522Z,13.70
2017-12-05T13:48:08.891Z,9.37
2017-12-05T13:50:37.147Z,9.33
2017-12-05T13:53:05.507Z,11.77
2017-12-05T13:55:33.762Z,10.83
2017-12-05T13:58:02.838Z,11.07
2017-12-05T14:00:31.087Z,15.90
2017-12-05T14:02:59.334Z,9.20
2017-12-05T14:05:27.947Z,10.03
2017-12-05T14:07:56.177Z,14.57
2017-12-05T14:10:24.472Z,9.67
2017-12-05T14:12:52.763Z,9.50
2017-12-05T14:15:21.738Z,8.87
2017-12-05T14:17:49.975Z,9.93
2017-12-05T14:20:18.842Z,10.83
2017-12-05T14:22:47.088Z,11.13
2017-12-05T14:25:15.510Z,10.13
2017-12-05T14:27:43.778Z,14.37
2017-12-05T14:30:12.023Z,11.63
2017-12-05T14:32:40.954Z,12.57
2017-12-05T14:35:09.236Z,12.53
2017-12-05T14:37:37.472Z,10.97
2017-12-05T14:40:05.779Z,10.70
2017-12-05T14:42:34.099Z,10.23
2017-12-05T14:45:02.342Z,10.83
2017-12-05T14:47:30.616Z,10.37
2017-12-05T14:49:58.878Z,9.13
2017-12-05T14:52:27.173Z,12.90
2017-12-05T14:54:55.433Z,11.30
2017-12-05T14:57:23.694Z,12.40
2017-12-05T14:59:51.953Z,12.60
2017-12-05T15:02:20.277Z,14.10
2017-12-05T15:04:48.729Z,10.93
2017-12-05T15:07:16.970Z,11.90
2017-12-05T15:09:45.210Z,13.00
2017-12-05T15:12:13.515Z,11.73
2017-12-05T15:14:44.191Z,11.47
2017-12-05T15:17:12.706Z,13.10
2017-12-05T15:19:40.974Z,12.20
2017-12-05T15:22:09.216Z,9.63
2017-12-05T15:24:37.464Z,10.40
2017-12-05T15:27:05.792Z,11.87
2017-12-05T15:29:34.029Z,13.23
2017-12-05T15:32:02.428Z,13.33
2017-12-05T15:34:31.153Z,12.47
2017-12-05T15:36:59.463Z,9.40
2017-12-05T15:39:27.693Z,13.87
2017-12-05T15:41:57.144Z,11.10
2017-12-05T15:44:26.152Z,15.97
2017-12-05T15:46:54.433Z,23.00
2017-12-05T15:49:22.748Z,13.43
2017-12-05T15:51:51.128Z,12.10
2017-12-05T15:54:19.505Z,12.70
2017-12-05T15:56:48.953Z,12.70
2017-12-05T15:59:17.981Z,16.70
2017-12-05T16:01:46.305Z,13.57
2017-12-05T16:04:14.715Z,21.00
2017-12-05T16:06:43.993Z,10.57
2017-12-05T16:09:12.407Z,18.67
2017-12-05T16:11:43.082Z,16.47
2017-12-05T16:14:11.339Z,13.93
2017-12-05T16:16:39.589Z,15.27
2017-12-05T16:19:08.034Z,14.30
2017-12-05T16:21:38.435Z,14.40
2017-12-05T16:24:06.662Z,14.83
2017-12-05T16:26:35.705Z,15.77
2017-12-05T16:29:03.947Z,16.93
2017-12-05T16:31:32.261Z,17.60
2017-12-05T16:34:00.661Z,13.50
2017-12-05T16:36:29.450Z,14.87
2017-12-05T16:38:57.694Z,16.63
2017-12-05T16:41:25.975Z,9.87
2017-12-05T16:43:54.230Z,16.27
2017-12-05T16:46:22.503Z,16.00
2017-12-05T16:48:52.035Z,17.40
2017-12-05T16:51:20.322Z,14.33
2017-12-05T16:53:48.708Z,17.43
2017-12-05T16:56:17.178Z,18.70
2017-12-05T16:58:47.619Z,16.40
2017-12-05T17:01:16.942Z,15.83
2017-12-05T17:03:47.167Z,16.53
2017-12-05T17:06:16.182Z,17.07
2017-12-05T17:08:44.454Z,21.80
2017-12-05T17:11:12.772Z,18.73
2017-12-05T17:13:41.018Z,15.60
2017-12-05T17:16:09.278Z,14.73
2017-12-05T17:18:37.958Z,15.73
2017-12-05T17:21:06.609Z,12.40
2017-12-05T17:23:38.818Z,18.70
2017-12-05T17:26:08.173Z,19.03
2017-12-05T17:28:36.657Z,19.47
2017-12-05T17:31:06.103Z,25.33
2017-12-05T17:33:35.259Z,20.87
2017-12-05T17:36:05.602Z,19.53
2017-12-05T17:38:34.006Z,18.00
2017-12-05T17:41:04.391Z,23.47
2017-12-05T17:43:32.635Z,14.20
2017-12-05T17:46:04.978Z,16.50
2017-12-05T17:48:34.262Z,19.20
2017-12-05T17:51:02.642Z,19.97
2017-12-05T17:53:31.035Z,18.60
2017-12-05T17:56:00.074Z,21.17
2017-12-05T17:58:28.350Z,20.33
2017-12-05T18:00:57.077Z,18.00
2017-12-05T18:03:25.450Z,18.60
2017-12-05T18:05:53.837Z,17.17
2017-12-05T18:08:22.233Z,15.87
2017-12-05T18:10:51.268Z,18.00
2017-12-05T18:13:19.505Z,22.27
2017-12-05T18:15:47.978Z,13.57
2017-12-05T18:18:17.006Z,17.77
2017-12-05T18:20:45.277Z,18.77
2017-12-05T18:23:13.790Z,20.70
2017-12-05T18:25:44.239Z,23.10
2017-12-05T18:28:12.493Z,19.73
2017-12-05T18:30:41.941Z,20.10
2017-12-05T18:33:10.963Z,15.30
2017-12-05T18:35:39.219Z,22.87
2017-12-05T18:38:07.518Z,16.47
2017-12-05T18:40:35.778Z,22.80
2017-12-05T18:43:04.801Z,17.67
2017-12-05T18:45:33.824Z,22.50
2017-12-05T18:48:02.069Z,20.20
2017-12-05T18:50:30.494Z,32.33
2017-12-05T18:52:58.764Z,20.97
2017-12-05T18:55:27.026Z,22.07
2017-12-05T18:57:55.289Z,23.00
2017-12-05T19:00:23.566Z,22.40
2017-12-05T19:02:51.842Z,21.77
2017-12-05T19:05:20.166Z,20.33
2017-12-05T19:07:48.490Z,17.40
2017-12-05T19:10:16.743Z,17.07
2017-12-05T19:12:45.002Z,20.57
2017-12-05T19:15:13.378Z,20.73
2017-12-05T19:17:42.398Z,15.93
2017-12-05T19:20:10.650Z,17.47
2017-12-05T19:22:39.138Z,20.20
2017-12-05T19:25:08.161Z,19.27
2017-12-05T19:27:36.490Z,20.00
2017-12-05T19:30:05.249Z,19.10
2017-12-05T19:32:33.508Z,18.47
2017-12-05T19:35:01.758Z,22.57
2017-12-05T19:37:32.186Z,21.13
2017-12-05T19:40:01.206Z,23.23
2017-12-05T19:42:29.455Z,23.50
2017-12-05T19:44:57.726Z,19.97
2017-12-05T19:47:25.965Z,22.13
2017-12-05T19:49:54.222Z,14.50
2017-12-05T19:52:22.562Z,18.10
2017-12-05T19:54:51.574Z,19.70
2017-12-05T19:57:19.823Z,22.93
2017-12-05T19:59:49.170Z,22.70
2017-12-05T20:02:17.423Z,25.13
2017-12-05T20:04:45.682Z,23.47
2017-12-05T20:07:14.720Z,20.97
2017-12-05T20:09:42.962Z,18.13
2017-12-05T20:12:11.978Z,21.97
2017-12-05T20:14:40.681Z,19.60
2017-12-05T20:17:08.930Z,19.47
2017-12-05T20:19:37.174Z,21.67
2017-12-05T20:22:05.801Z,22.80
2017-12-05T20:24:35.041Z,20.47
2017-12-05T20:27:03.290Z,22.87
2017-12-05T20:29:31.570Z,24.53
2017-12-05T20:31:59.826Z,21.40
2017-12-05T20:34:28.074Z,23.50
2017-12-05T20:36:57.178Z,20.63
2017-12-05T20:39:25.421Z,19.33
2017-12-05T20:41:53.666Z,21.30
2017-12-05T20:44:22.438Z,19.07
2017-12-05T20:46:50.690Z,24.70
2017-12-05T20:49:18.933Z,21.03
2017-12-05T20:51:47.202Z,21.40
2017-12-05T20:54:15.444Z,24.33
2017-12-05T20:56:43.690Z,21.40
2017-12-05T20:59:13.043Z,22.60
2017-12-05T21:01:41.294Z,19.43
2017-12-05T21:04:09.542Z,23.40
2017-12-05T21:06:37.816Z,20.60
2017-12-05T21:09:06.063Z,19.90
2017-12-05T21:11:34.306Z,20.10
2017-12-05T21:14:02.582Z,21.87
2017-12-05T21:16:31.007Z,20.70
2017-12-05T21:18:59.262Z,22.17
2017-12-05T21:21:27.702Z,22.27
2017-12-05T21:23:55.946Z,20.73
2017-12-05T21:26:24.190Z,18.87
2017-12-05T21:28:52.531Z,20.00
2017-12-05T21:31:20.765Z,21.87
2017-12-05T21:33:49.016Z,20.37
2017-12-05T21:36:17.313Z,21.80
2017-12-05T21:38:45.565Z,24.90
2017-12-05T21:41:13.810Z,21.73
2017-12-05T21:43:42.149Z,18.03
2017-12-05T21:46:10.934Z,19.10
2017-12-05T21:48:39.178Z,19.90
2017-12-05T21:51:07.460Z,24.33
2017-12-05T21:53:35.702Z,22.70
2017-12-05T21:56:03.955Z,24.33
2017-12-05T21:58:32.330Z,19.47
2017-12-05T22:01:00.639Z,19.93
2017-12-05T22:03:29.646Z,23.23
2017-12-05T22:05:58.178Z,22.60
2017-12-05T22:08:26.434Z,21.00
2017-12-05T22:10:54.683Z,22.57
2017-12-05T22:13:22.946Z,16.57
2017-12-05T22:15:51.198Z,21.60
2017-12-05T22:18:19.447Z,24.00
2017-12-05T22:20:47.713Z,21.30
2017-12-05T22:23:16.027Z,20.70
2017-12-05T22:25:44.230Z,21.53
2017-12-05T22:28:12.577Z,18.33
2017-12-05T22:30:40.825Z,21.77
2017-12-05T22:33:09.070Z,24.10
2017-12-05T22:35:37.333Z,21.50
2017-12-05T22:38:06.354Z,19.97
2017-12-05T22:40:34.598Z,24.03
2017-12-05T22:43:03.633Z,23.43
2017-12-05T22:45:31.885Z,18.97
2017-12-05T22:48:00.287Z,22.10
2017-12-05T22:50:28.874Z,26.27
2017-12-05T22:52:57.129Z,21.93
2017-12-05T22:55:25.590Z,21.53
2017-12-05T22:57:54.629Z,22.40
2017-12-05T23:00:22.879Z,32.13
2017-12-05T23:02:51.127Z,18.07
2017-12-05T23:05:19.477Z,22.80
2017-12-05T23:07:47.723Z,19.73
2017-12-05T23:10:15.970Z,21.73
2017-12-05T23:12:44.614Z,20.90
2017-12-05T23:15:12.877Z,24.50
2017-12-05T23:17:41.126Z,21.80
2017-12-05T23:20:09.394Z,17.33
2017-12-05T23:22:37.642Z,22.17
2017-12-05T23:25:05.895Z,19.77
2017-12-05T23:27:34.167Z,20.00
2017-12-05T23:30:02.414Z,15.70
2017-12-05T23:32:30.662Z,21.03
2017-12-05T23:35:00.038Z,19.07
2017-12-05T23:37:28.286Z,20.97
2017-12-05T23:39:56.538Z,20.77
2017-12-05T23:42:24.801Z,21.00
2017-12-05T23:44:54.981Z,19.40
2017-12-05T23:47:23.250Z,26.63
2017-12-05T23:49:51.633Z,22.23
2017-12-05T23:52:19.873Z,19.00
2017-12-05T23:54:48.122Z,21.07
2017-12-05T23:57:16.754Z,15.63
2017-12-05T23:59:45.078Z,22.20
